sensor_id;sensor_type;location;lat;lon;timestamp;pressure;altitude;pressure_sealevel;temperature;humidity
76378;BME280;65200;49.500;8.654;2023-08-06T00:02:19;99610.53;;;15.97;97.71
76378;BME280;65200;49.500;8.654;2023-08-06T00:04:46;99609.44;;;15.98;98.62
76378;BME280;65200;49.500;8.654;2023-08-06T00:07:12;99598.00;;;16.07;97.68
76378;BME280;65200;49.500;8.654;2023-08-06T00:09:39;99605.28;;;16.07;97.99
76378;BME280;65200;49.500;8.654;2023-08-06T00:12:07;99600.09;;;16.05;97.51
76378;BME280;65200;49.500;8.654;2023-08-06T00:14:33;99596.03;;;16.03;97.27
76378;BME280;65200;49.500;8.654;2023-08-06T00:17:00;99585.06;;;16.09;95.75
76378;BME280;65200;49.500;8.654;2023-08-06T00:19:26;99586.84;;;16.04;97.89
76378;BME280;65200;49.500;8.654;2023-08-06T00:21:53;99593.16;;;16.09;96.48
76378;BME280;65200;49.500;8.654;2023-08-06T00:24:20;99582.44;;;16.14;96.47
76378;BME280;65200;49.500;8.654;2023-08-06T00:26:46;99588.34;;;16.11;96.52
76378;BME280;65200;49.500;8.654;2023-08-06T00:29:14;99581.94;;;16.17;94.89
76378;BME280;65200;49.500;8.654;2023-08-06T00:31:40;99578.84;;;16.25;94.55
76378;BME280;65200;49.500;8.654;2023-08-06T00:34:07;99577.03;;;16.31;93.86
76378;BME280;65200;49.500;8.654;2023-08-06T00:36:33;99573.09;;;16.38;92.94
76378;BME280;65200;49.500;8.654;2023-08-06T00:39:00;99557.69;;;16.39;94.24
76378;BME280;65200;49.500;8.654;2023-08-06T00:41:26;99568.50;;;16.39;93.89
76378;BME280;65200;49.500;8.654;2023-08-06T00:43:53;99552.44;;;16.49;90.99
76378;BME280;65200;49.500;8.654;2023-08-06T00:46:20;99558.19;;;16.53;89.99
76378;BME280;65200;49.500;8.654;2023-08-06T00:48:47;99547.03;;;16.49;91.18
76378;BME280;65200;49.500;8.654;2023-08-06T00:51:14;99550.31;;;16.51;92.41
76378;BME280;65200;49.500;8.654;2023-08-06T00:53:42;99538.69;;;16.51;89.43
76378;BME280;65200;49.500;8.654;2023-08-06T00:56:09;99533.28;;;16.51;89.60
76378;BME280;65200;49.500;8.654;2023-08-06T00:58:36;99541.88;;;16.48;90.94
76378;BME280;65200;49.500;8.654;2023-08-06T01:01:03;99537.44;;;16.41;89.88
76378;BME280;65200;49.500;8.654;2023-08-06T01:03:31;99546.88;;;16.39;91.07
76378;BME280;65200;49.500;8.654;2023-08-06T01:05:58;99541.34;;;16.46;90.39
76378;BME280;65200;49.500;8.654;2023-08-06T01:08:31;99527.72;;;16.57;88.11
76378;BME280;65200;49.500;8.654;2023-08-06T01:11:08;99534.50;;;16.60;88.32
76378;BME280;65200;49.500;8.654;2023-08-06T01:13:42;99533.22;;;16.67;87.06
76378;BME280;65200;49.500;8.654;2023-08-06T01:16:10;99526.78;;;16.68;87.54
76378;BME280;65200;49.500;8.654;2023-08-06T01:18:38;99523.81;;;16.70;87.62
76378;BME280;65200;49.500;8.654;2023-08-06T01:21:08;99526.69;;;16.63;89.08
76378;BME280;65200;49.500;8.654;2023-08-06T01:23:34;99520.22;;;16.64;89.43
76378;BME280;65200;49.500;8.654;2023-08-06T01:26:06;99518.84;;;16.62;89.31
76378;BME280;65200;49.500;8.654;2023-08-06T01:28:40;99514.22;;;16.62;87.27
76378;BME280;65200;49.500;8.654;2023-08-06T01:31:09;99509.56;;;16.58;88.67
76378;BME280;65200;49.500;8.654;2023-08-06T01:33:43;99506.34;;;16.61;86.97
76378;BME280;65200;49.500;8.654;2023-08-06T01:36:14;99506.44;;;16.66;88.04
76378;BME280;65200;49.500;8.654;2023-08-06T01:38:41;99509.38;;;16.64;88.94
76378;BME280;65200;49.500;8.654;2023-08-06T01:41:08;99506.75;;;16.69;86.86
76378;BME280;65200;49.500;8.654;2023-08-06T01:43:34;99496.75;;;16.70;86.93
76378;BME280;65200;49.500;8.654;2023-08-06T01:46:01;99502.78;;;16.77;86.87
76378;BME280;65200;49.500;8.654;2023-08-06T01:48:27;99498.38;;;16.71;87.32
76378;BME280;65200;49.500;8.654;2023-08-06T01:50:53;99493.53;;;16.73;86.85
76378;BME280;65200;49.500;8.654;2023-08-06T01:53:21;99489.66;;;16.64;85.17
76378;BME280;65200;49.500;8.654;2023-08-06T01:55:48;99490.00;;;16.51;86.30
76378;BME280;65200;49.500;8.654;2023-08-06T01:58:14;99488.44;;;16.38;86.12
76378;BME280;65200;49.500;8.654;2023-08-06T02:00:41;99485.91;;;16.31;87.05
76378;BME280;65200;49.500;8.654;2023-08-06T02:03:07;99484.78;;;16.27;86.99
76378;BME280;65200;49.500;8.654;2023-08-06T02:05:34;99488.69;;;16.20;88.61
76378;BME280;65200;49.500;8.654;2023-08-06T02:08:00;99491.22;;;16.26;87.74
76378;BME280;65200;49.500;8.654;2023-08-06T02:10:28;99494.09;;;16.36;86.31
76378;BME280;65200;49.500;8.654;2023-08-06T02:12:54;99493.84;;;16.38;87.84
76378;BME280;65200;49.500;8.654;2023-08-06T02:15:21;99491.97;;;16.38;87.49
76378;BME280;65200;49.500;8.654;2023-08-06T02:17:47;99484.94;;;16.37;87.75
76378;BME280;65200;49.500;8.654;2023-08-06T02:20:14;99483.84;;;16.38;87.23
76378;BME280;65200;49.500;8.654;2023-08-06T02:22:40;99481.47;;;16.42;87.52
76378;BME280;65200;49.500;8.654;2023-08-06T02:25:07;99483.59;;;16.40;87.74
76378;BME280;65200;49.500;8.654;2023-08-06T02:27:35;99470.91;;;16.40;87.08
76378;BME280;65200;49.500;8.654;2023-08-06T02:30:04;99471.94;;;16.39;87.55
76378;BME280;65200;49.500;8.654;2023-08-06T02:32:30;99476.63;;;16.44;87.77
76378;BME280;65200;49.500;8.654;2023-08-06T02:35:00;99481.16;;;16.38;87.37
76378;BME280;65200;49.500;8.654;2023-08-06T02:37:27;99467.03;;;16.36;87.24
76378;BME280;65200;49.500;8.654;2023-08-06T02:39:53;99486.56;;;16.38;88.38
76378;BME280;65200;49.500;8.654;2023-08-06T02:42:20;99474.91;;;16.38;87.39
76378;BME280;65200;49.500;8.654;2023-08-06T02:44:48;99472.13;;;16.33;86.91
76378;BME280;65200;49.500;8.654;2023-08-06T02:47:14;99468.88;;;16.31;87.54
76378;BME280;65200;49.500;8.654;2023-08-06T02:49:40;99471.00;;;16.29;89.02
76378;BME280;65200;49.500;8.654;2023-08-06T02:52:07;99468.56;;;16.27;88.79
76378;BME280;65200;49.500;8.654;2023-08-06T02:54:33;99462.56;;;16.25;90.05
76378;BME280;65200;49.500;8.654;2023-08-06T02:57:00;99460.38;;;16.22;89.09
76378;BME280;65200;49.500;8.654;2023-08-06T02:59:26;99459.88;;;16.09;89.11
76378;BME280;65200;49.500;8.654;2023-08-06T03:01:54;99471.69;;;16.03;90.88
76378;BME280;65200;49.500;8.654;2023-08-06T03:04:20;99466.63;;;16.06;90.64
76378;BME280;65200;49.500;8.654;2023-08-06T03:06:49;99464.97;;;16.05;90.51
76378;BME280;65200;49.500;8.654;2023-08-06T03:09:15;99464.34;;;15.98;91.16
76378;BME280;65200;49.500;8.654;2023-08-06T03:11:42;99467.59;;;16.00;90.87
76378;BME280;65200;49.500;8.654;2023-08-06T03:14:08;99455.41;;;15.98;91.27
76378;BME280;65200;49.500;8.654;2023-08-06T03:16:35;99457.59;;;16.01;90.89
76378;BME280;65200;49.500;8.654;2023-08-06T03:19:02;99448.59;;;15.95;90.72
76378;BME280;65200;49.500;8.654;2023-08-06T03:21:29;99456.13;;;15.93;91.45
76378;BME280;65200;49.500;8.654;2023-08-06T03:23:55;99447.22;;;15.93;91.54
76378;BME280;65200;49.500;8.654;2023-08-06T03:26:21;99437.72;;;15.90;91.21
76378;BME280;65200;49.500;8.654;2023-08-06T03:28:48;99445.34;;;15.93;91.47
76378;BME280;65200;49.500;8.654;2023-08-06T03:31:14;99446.03;;;15.89;92.11
76378;BME280;65200;49.500;8.654;2023-08-06T03:33:41;99440.44;;;15.90;90.97
76378;BME280;65200;49.500;8.654;2023-08-06T03:36:08;99446.28;;;15.87;91.21
76378;BME280;65200;49.500;8.654;2023-08-06T03:38:35;99447.94;;;15.88;91.41
76378;BME280;65200;49.500;8.654;2023-08-06T03:41:01;99444.66;;;15.86;90.81
76378;BME280;65200;49.500;8.654;2023-08-06T03:43:28;99435.97;;;15.84;90.77
76378;BME280;65200;49.500;8.654;2023-08-06T03:45:54;99447.38;;;15.86;90.34
76378;BME280;65200;49.500;8.654;2023-08-06T03:48:20;99440.84;;;15.82;91.19
76378;BME280;65200;49.500;8.654;2023-08-06T03:50:47;99435.66;;;15.81;89.96
76378;BME280;65200;49.500;8.654;2023-08-06T03:53:15;99440.25;;;15.80;91.56
76378;BME280;65200;49.500;8.654;2023-08-06T03:55:41;99441.06;;;15.81;91.50
76378;BME280;65200;49.500;8.654;2023-08-06T03:58:08;99430.59;;;15.68;92.38
76378;BME280;65200;49.500;8.654;2023-08-06T04:00:34;99436.31;;;15.71;92.70
76378;BME280;65200;49.500;8.654;2023-08-06T04:03:01;99437.31;;;15.65;93.63
76378;BME280;65200;49.500;8.654;2023-08-06T04:05:27;99435.19;;;15.67;94.51
76378;BME280;65200;49.500;8.654;2023-08-06T04:07:57;99440.66;;;15.56;94.87
76378;BME280;65200;49.500;8.654;2023-08-06T04:10:24;99440.66;;;15.56;94.75
76378;BME280;65200;49.500;8.654;2023-08-06T04:12:51;99445.81;;;15.57;94.86
76378;BME280;65200;49.500;8.654;2023-08-06T04:15:17;99441.53;;;15.61;94.46
76378;BME280;65200;49.500;8.654;2023-08-06T04:17:43;99434.53;;;15.60;94.67
76378;BME280;65200;49.500;8.654;2023-08-06T04:20:10;99439.34;;;15.58;94.50
76378;BME280;65200;49.500;8.654;2023-08-06T04:22:36;99436.88;;;15.57;95.26
76378;BME280;65200;49.500;8.654;2023-08-06T04:25:03;99444.34;;;15.50;95.21
76378;BME280;65200;49.500;8.654;2023-08-06T04:27:31;99441.31;;;15.46;97.84
76378;BME280;65200;49.500;8.654;2023-08-06T04:29:58;99445.66;;;15.36;97.68
76378;BME280;65200;49.500;8.654;2023-08-06T04:32:24;99448.44;;;15.24;99.09
76378;BME280;65200;49.500;8.654;2023-08-06T04:34:52;99446.31;;;15.26;99.38
76378;BME280;65200;49.500;8.654;2023-08-06T04:37:18;99456.19;;;15.21;98.49
76378;BME280;65200;49.500;8.654;2023-08-06T04:39:45;99452.41;;;15.05;100.00
76378;BME280;65200;49.500;8.654;2023-08-06T04:42:11;99435.41;;;14.93;100.00
76378;BME280;65200;49.500;8.654;2023-08-06T04:44:39;99447.13;;;14.98;100.00
76378;BME280;65200;49.500;8.654;2023-08-06T04:47:05;99451.53;;;14.88;100.00
76378;BME280;65200;49.500;8.654;2023-08-06T04:49:32;99455.38;;;14.92;100.00
76378;BME280;65200;49.500;8.654;2023-08-06T04:51:58;99446.22;;;14.93;100.00
76378;BME280;65200;49.500;8.654;2023-08-06T04:54:25;99447.97;;;14.99;100.00
76378;BME280;65200;49.500;8.654;2023-08-06T04:56:51;99451.22;;;15.01;100.00
76378;BME280;65200;49.500;8.654;2023-08-06T04:59:17;99452.88;;;15.02;100.00
76378;BME280;65200;49.500;8.654;2023-08-06T05:01:45;99449.69;;;15.05;100.00
76378;BME280;65200;49.500;8.654;2023-08-06T05:04:12;99445.69;;;15.07;99.81
76378;BME280;65200;49.500;8.654;2023-08-06T05:06:38;99444.53;;;15.03;99.66
76378;BME280;65200;49.500;8.654;2023-08-06T05:09:05;99440.91;;;14.98;99.61
76378;BME280;65200;49.500;8.654;2023-08-06T05:11:32;99442.56;;;14.99;99.26
76378;BME280;65200;49.500;8.654;2023-08-06T05:13:58;99438.47;;;14.96;99.17
76378;BME280;65200;49.500;8.654;2023-08-06T05:16:24;99440.91;;;14.98;98.21
76378;BME280;65200;49.500;8.654;2023-08-06T05:18:52;99445.16;;;14.94;98.56
76378;BME280;65200;49.500;8.654;2023-08-06T05:21:19;99442.03;;;14.85;100.00
76378;BME280;65200;49.500;8.654;2023-08-06T05:23:45;99448.38;;;14.79;100.00
76378;BME280;65200;49.500;8.654;2023-08-06T05:26:12;99449.47;;;14.67;100.00
76378;BME280;65200;49.500;8.654;2023-08-06T05:28:39;99445.13;;;14.66;100.00
76378;BME280;65200;49.500;8.654;2023-08-06T05:31:06;99451.38;;;14.55;100.00
76378;BME280;65200;49.500;8.654;2023-08-06T05:33:32;99450.31;;;14.56;100.00
76378;BME280;65200;49.500;8.654;2023-08-06T05:36:00;99455.03;;;14.49;100.00
76378;BME280;65200;49.500;8.654;2023-08-06T05:38:26;99461.34;;;14.43;100.00
76378;BME280;65200;49.500;8.654;2023-08-06T05:40:53;99456.81;;;14.32;100.00
76378;BME280;65200;49.500;8.654;2023-08-06T05:43:20;99454.44;;;14.24;100.00
76378;BME280;65200;49.500;8.654;2023-08-06T05:45:49;99460.91;;;14.23;100.00
76378;BME280;65200;49.500;8.654;2023-08-06T05:48:15;99455.75;;;14.21;100.00
76378;BME280;65200;49.500;8.654;2023-08-06T05:50:42;99469.56;;;14.25;100.00
76378;BME280;65200;49.500;8.654;2023-08-06T05:53:10;99464.78;;;14.27;100.00
76378;BME280;65200;49.500;8.654;2023-08-06T05:55:36;99468.66;;;14.31;100.00
76378;BME280;65200;49.500;8.654;2023-08-06T05:58:03;99464.91;;;14.32;100.00
76378;BME280;65200;49.500;8.654;2023-08-06T06:00:29;99469.69;;;14.41;100.00
76378;BME280;65200;49.500;8.654;2023-08-06T06:02:56;99470.28;;;14.43;100.00
76378;BME280;65200;49.500;8.654;2023-08-06T06:05:22;99475.91;;;14.42;100.00
76378;BME280;65200;49.500;8.654;2023-08-06T06:07:48;99483.63;;;14.38;100.00
76378;BME280;65200;49.500;8.654;2023-08-06T06:10:16;99468.19;;;14.34;100.00
76378;BME280;65200;49.500;8.654;2023-08-06T06:12:43;99483.06;;;14.25;100.00
76378;BME280;65200;49.500;8.654;2023-08-06T06:15:09;99482.22;;;14.24;100.00
76378;BME280;65200;49.500;8.654;2023-08-06T06:17:36;99483.38;;;14.17;100.00
76378;BME280;65200;49.500;8.654;2023-08-06T06:20:03;99478.22;;;14.15;100.00
76378;BME280;65200;49.500;8.654;2023-08-06T06:22:30;99480.81;;;14.22;100.00
76378;BME280;65200;49.500;8.654;2023-08-06T06:24:56;99481.88;;;14.21;100.00
76378;BME280;65200;49.500;8.654;2023-08-06T06:27:24;99483.41;;;14.28;100.00
76378;BME280;65200;49.500;8.654;2023-08-06T06:29:50;99485.88;;;14.30;100.00
76378;BME280;65200;49.500;8.654;2023-08-06T06:32:17;99488.31;;;14.31;100.00
76378;BME280;65200;49.500;8.654;2023-08-06T06:34:44;99497.72;;;14.29;100.00
76378;BME280;65200;49.500;8.654;2023-08-06T06:37:10;99491.03;;;14.31;100.00
76378;BME280;65200;49.500;8.654;2023-08-06T06:39:36;99484.72;;;14.26;100.00
76378;BME280;65200;49.500;8.654;2023-08-06T06:42:04;99493.94;;;14.30;100.00
76378;BME280;65200;49.500;8.654;2023-08-06T06:44:32;99490.47;;;14.29;100.00
76378;BME280;65200;49.500;8.654;2023-08-06T06:46:58;99483.75;;;14.32;100.00
76378;BME280;65200;49.500;8.654;2023-08-06T06:49:24;99492.56;;;14.39;100.00
76378;BME280;65200;49.500;8.654;2023-08-06T06:51:51;99490.34;;;14.36;100.00
76378;BME280;65200;49.500;8.654;2023-08-06T06:54:17;99494.78;;;14.42;100.00
76378;BME280;65200;49.500;8.654;2023-08-06T06:56:43;99495.94;;;14.46;100.00
76378;BME280;65200;49.500;8.654;2023-08-06T06:59:10;99491.59;;;14.45;100.00
76378;BME280;65200;49.500;8.654;2023-08-06T07:01:38;99489.72;;;14.57;100.00
76378;BME280;65200;49.500;8.654;2023-08-06T07:04:04;99483.84;;;14.60;100.00
76378;BME280;65200;49.500;8.654;2023-08-06T07:06:30;99481.94;;;14.60;100.00
76378;BME280;65200;49.500;8.654;2023-08-06T07:08:57;99483.47;;;14.68;100.00
76378;BME280;65200;49.500;8.654;2023-08-06T07:11:24;99485.56;;;14.77;100.00
76378;BME280;65200;49.500;8.654;2023-08-06T07:13:56;99491.69;;;14.73;100.00
76378;BME280;65200;49.500;8.654;2023-08-06T07:16:22;99480.03;;;14.84;100.00
76378;BME280;65200;49.500;8.654;2023-08-06T07:18:51;99486.03;;;14.74;100.00
76378;BME280;65200;49.500;8.654;2023-08-06T07:21:17;99489.75;;;14.85;100.00
76378;BME280;65200;49.500;8.654;2023-08-06T07:23:44;99490.31;;;14.98;100.00
76378;BME280;65200;49.500;8.654;2023-08-06T07:26:10;99490.22;;;14.93;100.00
76378;BME280;65200;49.500;8.654;2023-08-06T07:28:36;99483.41;;;15.02;100.00
76378;BME280;65200;49.500;8.654;2023-08-06T07:31:03;99477.22;;;15.19;100.00
76378;BME280;65200;49.500;8.654;2023-08-06T07:33:30;99478.38;;;15.23;100.00
76378;BME280;65200;49.500;8.654;2023-08-06T07:35:58;99482.03;;;15.17;100.00
76378;BME280;65200;49.500;8.654;2023-08-06T07:38:24;99490.28;;;15.10;100.00
76378;BME280;65200;49.500;8.654;2023-08-06T07:40:51;99485.56;;;15.17;100.00
76378;BME280;65200;49.500;8.654;2023-08-06T07:43:18;99485.94;;;15.09;100.00
76378;BME280;65200;49.500;8.654;2023-08-06T07:45:44;99489.16;;;15.23;100.00
76378;BME280;65200;49.500;8.654;2023-08-06T07:48:10;99489.81;;;15.41;100.00
76378;BME280;65200;49.500;8.654;2023-08-06T07:50:37;99489.63;;;15.59;100.00
76378;BME280;65200;49.500;8.654;2023-08-06T07:53:05;99489.84;;;15.58;100.00
76378;BME280;65200;49.500;8.654;2023-08-06T07:55:31;99476.41;;;15.46;100.00
76378;BME280;65200;49.500;8.654;2023-08-06T07:57:57;99485.06;;;15.48;100.00
76378;BME280;65200;49.500;8.654;2023-08-06T08:00:24;99485.72;;;15.39;100.00
76378;BME280;65200;49.500;8.654;2023-08-06T08:02:50;99474.13;;;15.27;100.00
76378;BME280;65200;49.500;8.654;2023-08-06T08:05:17;99485.47;;;15.12;100.00
76378;BME280;65200;49.500;8.654;2023-08-06T08:07:43;99487.91;;;15.13;100.00
76378;BME280;65200;49.500;8.654;2023-08-06T08:10:11;99490.56;;;15.25;100.00
76378;BME280;65200;49.500;8.654;2023-08-06T08:12:38;99489.13;;;15.34;100.00
76378;BME280;65200;49.500;8.654;2023-08-06T08:15:05;99483.72;;;15.34;100.00
76378;BME280;65200;49.500;8.654;2023-08-06T08:17:32;99491.13;;;15.39;100.00
76378;BME280;65200;49.500;8.654;2023-08-06T08:19:59;99480.03;;;15.68;100.00
76378;BME280;65200;49.500;8.654;2023-08-06T08:22:26;99485.44;;;15.85;100.00
76378;BME280;65200;49.500;8.654;2023-08-06T08:24:52;99485.19;;;15.86;100.00
76378;BME280;65200;49.500;8.654;2023-08-06T08:27:20;99482.72;;;15.68;100.00
76378;BME280;65200;49.500;8.654;2023-08-06T08:29:46;99469.63;;;15.60;100.00
76378;BME280;65200;49.500;8.654;2023-08-06T08:32:13;99479.06;;;15.58;100.00
76378;BME280;65200;49.500;8.654;2023-08-06T08:34:39;99463.09;;;15.73;100.00
76378;BME280;65200;49.500;8.654;2023-08-06T08:37:06;99468.56;;;15.94;100.00
76378;BME280;65200;49.500;8.654;2023-08-06T08:39:32;99467.19;;;15.92;100.00
76378;BME280;65200;49.500;8.654;2023-08-06T08:41:59;99473.56;;;15.53;100.00
76378;BME280;65200;49.500;8.654;2023-08-06T08:44:27;99470.78;;;15.36;100.00
76378;BME280;65200;49.500;8.654;2023-08-06T08:46:54;99472.72;;;15.24;100.00
76378;BME280;65200;49.500;8.654;2023-08-06T08:49:22;99469.69;;;15.49;100.00
76378;BME280;65200;49.500;8.654;2023-08-06T08:51:50;99463.56;;;15.70;100.00
76378;BME280;65200;49.500;8.654;2023-08-06T08:54:20;99458.41;;;16.18;100.00
76378;BME280;65200;49.500;8.654;2023-08-06T08:56:49;99468.69;;;16.37;100.00
76378;BME280;65200;49.500;8.654;2023-08-06T08:59:15;99459.44;;;16.50;100.00
76378;BME280;65200;49.500;8.654;2023-08-06T09:01:44;99458.69;;;16.55;100.00
76378;BME280;65200;49.500;8.654;2023-08-06T09:04:16;99464.16;;;16.81;100.00
76378;BME280;65200;49.500;8.654;2023-08-06T09:06:43;99460.31;;;16.99;100.00
76378;BME280;65200;49.500;8.654;2023-08-06T09:09:15;99461.53;;;16.65;100.00
76378;BME280;65200;49.500;8.654;2023-08-06T09:11:43;99466.03;;;16.42;100.00
76378;BME280;65200;49.500;8.654;2023-08-06T09:14:11;99460.38;;;16.22;100.00
76378;BME280;65200;49.500;8.654;2023-08-06T09:16:38;99447.69;;;16.44;100.00
76378;BME280;65200;49.500;8.654;2023-08-06T09:19:09;99448.94;;;16.37;100.00
76378;BME280;65200;49.500;8.654;2023-08-06T09:21:37;99440.31;;;16.57;100.00
76378;BME280;65200;49.500;8.654;2023-08-06T09:24:07;99439.50;;;16.56;100.00
76378;BME280;65200;49.500;8.654;2023-08-06T09:26:33;99439.31;;;16.24;100.00
76378;BME280;65200;49.500;8.654;2023-08-06T09:29:00;99453.91;;;15.57;100.00
76378;BME280;65200;49.500;8.654;2023-08-06T09:31:32;99458.09;;;15.20;100.00
76378;BME280;65200;49.500;8.654;2023-08-06T09:33:59;99449.31;;;15.13;100.00
76378;BME280;65200;49.500;8.654;2023-08-06T09:36:27;99449.56;;;15.73;100.00
76378;BME280;65200;49.500;8.654;2023-08-06T09:38:54;99451.94;;;16.02;100.00
76378;BME280;65200;49.500;8.654;2023-08-06T09:41:26;99448.53;;;16.45;100.00
76378;BME280;65200;49.500;8.654;2023-08-06T09:43:53;99447.53;;;16.73;100.00
76378;BME280;65200;49.500;8.654;2023-08-06T09:46:20;99451.94;;;17.00;100.00
76378;BME280;65200;49.500;8.654;2023-08-06T09:48:47;99446.41;;;16.69;100.00
76378;BME280;65200;49.500;8.654;2023-08-06T09:51:15;99430.53;;;16.56;100.00
76378;BME280;65200;49.500;8.654;2023-08-06T09:53:43;99427.41;;;16.25;100.00
76378;BME280;65200;49.500;8.654;2023-08-06T09:56:10;99437.78;;;15.95;100.00
76378;BME280;65200;49.500;8.654;2023-08-06T09:58:41;99444.16;;;15.89;100.00
76378;BME280;65200;49.500;8.654;2023-08-06T10:01:08;99459.59;;;15.72;100.00
76378;BME280;65200;49.500;8.654;2023-08-06T10:03:36;99473.63;;;15.41;100.00
76378;BME280;65200;49.500;8.654;2023-08-06T10:06:03;99482.72;;;15.24;100.00
76378;BME280;65200;49.500;8.654;2023-08-06T10:08:32;99485.72;;;15.27;100.00
76378;BME280;65200;49.500;8.654;2023-08-06T10:11:02;99486.50;;;15.11;100.00
76378;BME280;65200;49.500;8.654;2023-08-06T10:13:31;99481.75;;;15.30;100.00
76378;BME280;65200;49.500;8.654;2023-08-06T10:15:59;99474.13;;;15.55;100.00
76378;BME280;65200;49.500;8.654;2023-08-06T10:18:26;99475.94;;;15.49;100.00
76378;BME280;65200;49.500;8.654;2023-08-06T10:20:53;99481.13;;;15.39;100.00
76378;BME280;65200;49.500;8.654;2023-08-06T10:23:33;99490.47;;;15.48;100.00
76378;BME280;65200;49.500;8.654;2023-08-06T10:26:02;99484.28;;;15.48;100.00
76378;BME280;65200;49.500;8.654;2023-08-06T10:28:34;99483.84;;;15.39;100.00
76378;BME280;65200;49.500;8.654;2023-08-06T10:31:02;99485.81;;;15.32;100.00
76378;BME280;65200;49.500;8.654;2023-08-06T10:33:40;99487.72;;;15.32;100.00
76378;BME280;65200;49.500;8.654;2023-08-06T10:36:08;99501.22;;;15.32;100.00
76378;BME280;65200;49.500;8.654;2023-08-06T10:38:36;99505.28;;;15.06;100.00
76378;BME280;65200;49.500;8.654;2023-08-06T10:41:15;99521.38;;;15.01;100.00
76378;BME280;65200;49.500;8.654;2023-08-06T10:43:43;99514.84;;;14.97;100.00
76378;BME280;65200;49.500;8.654;2023-08-06T10:46:11;99522.97;;;14.85;100.00
76378;BME280;65200;49.500;8.654;2023-08-06T10:48:38;99519.56;;;14.78;100.00
76378;BME280;65200;49.500;8.654;2023-08-06T10:51:07;99507.72;;;14.79;100.00
76378;BME280;65200;49.500;8.654;2023-08-06T10:53:34;99516.72;;;14.85;100.00
76378;BME280;65200;49.500;8.654;2023-08-06T10:56:01;99533.41;;;14.82;100.00
76378;BME280;65200;49.500;8.654;2023-08-06T10:58:32;99531.28;;;14.84;100.00
76378;BME280;65200;49.500;8.654;2023-08-06T11:00:59;99528.34;;;14.85;100.00
76378;BME280;65200;49.500;8.654;2023-08-06T11:03:26;99527.06;;;14.88;100.00
76378;BME280;65200;49.500;8.654;2023-08-06T11:05:53;99534.22;;;14.94;100.00
76378;BME280;65200;49.500;8.654;2023-08-06T11:08:26;99535.59;;;14.96;100.00
76378;BME280;65200;49.500;8.654;2023-08-06T11:10:52;99533.84;;;15.02;100.00
76378;BME280;65200;49.500;8.654;2023-08-06T11:13:20;99538.28;;;15.08;100.00
76378;BME280;65200;49.500;8.654;2023-08-06T11:15:48;99539.56;;;15.05;100.00
76378;BME280;65200;49.500;8.654;2023-08-06T11:18:14;99552.09;;;15.11;100.00
76378;BME280;65200;49.500;8.654;2023-08-06T11:20:41;99555.63;;;15.12;99.93
76378;BME280;65200;49.500;8.654;2023-08-06T11:23:09;99562.53;;;15.20;99.93
76378;BME280;65200;49.500;8.654;2023-08-06T11:25:36;99563.84;;;15.17;99.80
76378;BME280;65200;49.500;8.654;2023-08-06T11:28:03;99552.56;;;15.20;100.00
76378;BME280;65200;49.500;8.654;2023-08-06T11:30:29;99561.41;;;15.32;97.86
76378;BME280;65200;49.500;8.654;2023-08-06T11:32:57;99566.47;;;15.40;98.13
76378;BME280;65200;49.500;8.654;2023-08-06T11:35:23;99561.28;;;15.50;97.44
76378;BME280;65200;49.500;8.654;2023-08-06T11:37:50;99558.28;;;15.63;96.70
76378;BME280;65200;49.500;8.654;2023-08-06T11:40:17;99570.00;;;15.69;95.12
76378;BME280;65200;49.500;8.654;2023-08-06T11:42:43;99572.94;;;15.67;94.30
76378;BME280;65200;49.500;8.654;2023-08-06T11:45:10;99567.56;;;15.67;94.62
76378;BME280;65200;49.500;8.654;2023-08-06T11:47:38;99568.13;;;15.69;94.62
76378;BME280;65200;49.500;8.654;2023-08-06T11:50:07;99564.94;;;15.72;92.38
76378;BME280;65200;49.500;8.654;2023-08-06T11:52:34;99576.78;;;15.71;92.25
76378;BME280;65200;49.500;8.654;2023-08-06T11:55:06;99583.63;;;15.74;91.89
76378;BME280;65200;49.500;8.654;2023-08-06T11:57:36;99578.66;;;15.82;91.95
76378;BME280;65200;49.500;8.654;2023-08-06T12:00:03;99584.50;;;15.79;92.31
76378;BME280;65200;49.500;8.654;2023-08-06T12:02:31;99592.22;;;15.87;92.13
76378;BME280;65200;49.500;8.654;2023-08-06T12:05:03;99594.06;;;15.98;90.96
76378;BME280;65200;49.500;8.654;2023-08-06T12:07:33;99614.53;;;16.11;86.48
76378;BME280;65200;49.500;8.654;2023-08-06T12:10:03;99608.56;;;16.09;88.41
76378;BME280;65200;49.500;8.654;2023-08-06T12:12:30;99611.84;;;16.11;89.11
76378;BME280;65200;49.500;8.654;2023-08-06T12:14:56;99622.41;;;16.12;87.79
76378;BME280;65200;49.500;8.654;2023-08-06T12:17:24;99629.28;;;16.20;86.79
76378;BME280;65200;49.500;8.654;2023-08-06T12:19:50;99627.00;;;16.28;84.85
76378;BME280;65200;49.500;8.654;2023-08-06T12:22:17;99621.59;;;16.28;84.16
76378;BME280;65200;49.500;8.654;2023-08-06T12:24:46;99621.69;;;16.33;81.77
76378;BME280;65200;49.500;8.654;2023-08-06T12:27:13;99628.81;;;16.23;82.87
76378;BME280;65200;49.500;8.654;2023-08-06T12:29:41;99637.97;;;16.22;81.08
76378;BME280;65200;49.500;8.654;2023-08-06T12:32:08;99644.22;;;16.22;80.72
76378;BME280;65200;49.500;8.654;2023-08-06T12:34:35;99648.16;;;16.31;79.86
76378;BME280;65200;49.500;8.654;2023-08-06T12:37:02;99661.66;;;16.31;80.89
76378;BME280;65200;49.500;8.654;2023-08-06T12:39:29;99655.78;;;16.34;80.60
76378;BME280;65200;49.500;8.654;2023-08-06T12:41:58;99673.41;;;16.37;78.13
76378;BME280;65200;49.500;8.654;2023-08-06T12:44:24;99663.72;;;16.41;80.42
76378;BME280;65200;49.500;8.654;2023-08-06T12:46:51;99664.56;;;16.41;79.48
76378;BME280;65200;49.500;8.654;2023-08-06T12:49:18;99664.06;;;16.44;79.37
76378;BME280;65200;49.500;8.654;2023-08-06T12:51:46;99674.28;;;16.42;79.75
76378;BME280;65200;49.500;8.654;2023-08-06T12:54:12;99668.09;;;16.42;81.64
76378;BME280;65200;49.500;8.654;2023-08-06T12:56:39;99675.38;;;16.41;81.25